MSC Viviana — D5ND7 — position and weather

sailwx.info

Track history (hours):
 
Tides and Currents Weather Stations Pressure Air Temp Water Temp Dewpoint Dewpoint Depression Visibility Wind Speed Wind Dir Waves Ship Positions

MSC Viviana

Last reported at 2018-Jun-18 14:37 UTC. Time now 2018-Jun-18 17:32 UTC.
Position N 48°54' W 005°21'.

Length 400 m; draft 14 m.

Type: Cargo ship. MMSI: 636017882.

Date/timePositionNaut miles runAvg speedWind from/ knotsBaromVisibWave heightAir tempDewpointWater temp
2018-Jun-18 14:37N 48°54' W 005°21'219.4
2018-Jun-18 14:30N 48°53' W 005°23'1119.0
2018-Jun-18 13:57N 48°47' W 005°36'6119.0
2018-Jun-18 10:43N 47°53' W 006°20'46519.3
2018-Jun-17 10:38N 40°33' W 009°49'5118.7
2018-Jun-17 07:55N 39°42' W 009°52'818.6
2018-Jun-17 07:31N 39°34' W 009°52'918.7
2018-Jun-17 07:00N 39°25' W 009°52'918.6
2018-Jun-17 06:30N 39°16' W 009°51'1218.8
2018-Jun-17 05:51N 39°03' W 009°51'719.0
2018-Jun-17 05:31N 38°57' W 009°51'1019.0
2018-Jun-17 05:00N 38°47' W 009°50'918.5
2018-Jun-17 04:30N 38°38' W 009°49'918.0
2018-Jun-17 04:00N 38°29' W 009°47'918.0
2018-Jun-17 03:30N 38°20' W 009°44'918.3
2018-Jun-17 02:59N 38°11' W 009°42'918.4
2018-Jun-17 02:30N 38°02' W 009°39'918.6
2018-Jun-17 02:01N 37°53' W 009°37'1019.0
2018-Jun-17 01:30N 37°44' W 009°34'1019.5
2018-Jun-17 01:00N 37°35' W 009°31'918.9
2018-Jun-17 00:30N 37°25' W 009°27'1018.7
2018-Jun-16 23:58N 37°16' W 009°24'918.6
2018-Jun-16 23:30N 37°07' W 009°23'918.5
2018-Jun-16 23:00N 36°58' W 009°20'918.4
2018-Jun-16 22:30N 36°50' W 009°15'1018.4
2018-Jun-16 21:59N 36°44' W 009°06'818.0
2018-Jun-16 21:30N 36°40' W 008°57'918.4
2018-Jun-16 21:00N 36°37' W 008°46'1019.5
2018-Jun-16 20:30N 36°34' W 008°34'1019.8
2018-Jun-16 20:00N 36°31' W 008°23'1220.0
2018-Jun-16 19:24N 36°27' W 008°08'820.1
2018-Jun-16 19:00N 36°26' W 007°59'1120.5
2018-Jun-16 18:30N 36°22' W 007°46'1020.2
2018-Jun-16 18:00N 36°19' W 007°35'1120.5
2018-Jun-16 17:29N 36°16' W 007°22'94 4.3
2018-Jun-15 19:45N 35°54' W 005°30'0 0.8
2018-Jun-15 19:30N 35°54' W 005°30'3 4.0
2018-Jun-15 18:41N 35°54' W 005°34'3 7.1
2018-Jun-15 18:18N 35°57' W 005°33'311.7
2018-Jun-15 18:00N 35°59' W 005°30'712.9
2018-Jun-15 17:30N 36°01' W 005°22'612.8
2018-Jun-15 17:00N 36°02' W 005°14'18117.8
2018-Jun-15 06:49N 36°22' W 001°30'819.7
2018-Jun-15 06:24N 36°24' W 001°21'2620.1
2018-Jun-15 05:08N 36°31' W 000°50'319.8
2018-Jun-15 04:59N 36°32' W 000°47'1020.1
2018-Jun-15 04:30N 36°34' W 000°35'1120.6
2018-Jun-15 03:57N 36°37' W 000°21'1520.4
2018-Jun-15 03:14N 36°41' W 000°04'520.2
2018-Jun-15 03:00N 36°43' E 000°02'1020.1
2018-Jun-15 02:30N 36°45' E 000°14'1120.3
2018-Jun-15 01:56N 36°48' E 000°27'1020.2
2018-Jun-15 01:26N 36°51' E 000°40'820.2
2018-Jun-15 01:00N 36°53' E 000°50'1020.2
2018-Jun-15 00:30N 36°56' E 001°02'1020.1
2018-Jun-15 00:00N 36°59' E 001°15'  
Track history (hours):
 
Tides and Currents Weather Stations Pressure Air Temp Water Temp Dewpoint Dewpoint Depression Visibility Wind Speed Wind Dir Waves Ship Positions

MSC Viviana

Last reported at 2018-Jun-18 14:37 UTC. Time now 2018-Jun-18 17:32 UTC.
Position N 48°54' W 005°21'.

Length 400 m; draft 14 m.

Type: Cargo ship. MMSI: 636017882.

Date/timePositionNaut miles runAvg speedWind from/ knotsBaromVisibWave heightAir tempDewpointWater temp
2018-Jun-18 14:37N 48°54' W 005°21'219.4
2018-Jun-18 14:30N 48°53' W 005°23'1119.0
2018-Jun-18 13:57N 48°47' W 005°36'6119.0
2018-Jun-18 10:43N 47°53' W 006°20'46519.3
2018-Jun-17 10:38N 40°33' W 009°49'5118.7
2018-Jun-17 07:55N 39°42' W 009°52'818.6
2018-Jun-17 07:31N 39°34' W 009°52'918.7
2018-Jun-17 07:00N 39°25' W 009°52'918.6
2018-Jun-17 06:30N 39°16' W 009°51'1218.8
2018-Jun-17 05:51N 39°03' W 009°51'719.0
2018-Jun-17 05:31N 38°57' W 009°51'1019.0
2018-Jun-17 05:00N 38°47' W 009°50'918.5
2018-Jun-17 04:30N 38°38' W 009°49'918.0
2018-Jun-17 04:00N 38°29' W 009°47'918.0
2018-Jun-17 03:30N 38°20' W 009°44'918.3
2018-Jun-17 02:59N 38°11' W 009°42'918.4
2018-Jun-17 02:30N 38°02' W 009°39'918.6
2018-Jun-17 02:01N 37°53' W 009°37'1019.0
2018-Jun-17 01:30N 37°44' W 009°34'1019.5
2018-Jun-17 01:00N 37°35' W 009°31'918.9
2018-Jun-17 00:30N 37°25' W 009°27'1018.7
2018-Jun-16 23:58N 37°16' W 009°24'918.6
2018-Jun-16 23:30N 37°07' W 009°23'918.5
2018-Jun-16 23:00N 36°58' W 009°20'918.4
2018-Jun-16 22:30N 36°50' W 009°15'1018.4
2018-Jun-16 21:59N 36°44' W 009°06'818.0
2018-Jun-16 21:30N 36°40' W 008°57'918.4
2018-Jun-16 21:00N 36°37' W 008°46'1019.5
2018-Jun-16 20:30N 36°34' W 008°34'1019.8
2018-Jun-16 20:00N 36°31' W 008°23'1220.0
2018-Jun-16 19:24N 36°27' W 008°08'820.1
2018-Jun-16 19:00N 36°26' W 007°59'1120.5
2018-Jun-16 18:30N 36°22' W 007°46'1020.2
2018-Jun-16 18:00N 36°19' W 007°35'1120.5
2018-Jun-16 17:29N 36°16' W 007°22'94 4.3
2018-Jun-15 19:45N 35°54' W 005°30'0 0.8
2018-Jun-15 19:30N 35°54' W 005°30'3 4.0
2018-Jun-15 18:41N 35°54' W 005°34'3 7.1
2018-Jun-15 18:18N 35°57' W 005°33'311.7
2018-Jun-15 18:00N 35°59' W 005°30'712.9
2018-Jun-15 17:30N 36°01' W 005°22'612.8
2018-Jun-15 17:00N 36°02' W 005°14'18117.8
2018-Jun-15 06:49N 36°22' W 001°30'819.7
2018-Jun-15 06:24N 36°24' W 001°21'2620.1
2018-Jun-15 05:08N 36°31' W 000°50'319.8
2018-Jun-15 04:59N 36°32' W 000°47'1020.1
2018-Jun-15 04:30N 36°34' W 000°35'1120.6
2018-Jun-15 03:57N 36°37' W 000°21'1520.4
2018-Jun-15 03:14N 36°41' W 000°04'520.2
2018-Jun-15 03:00N 36°43' E 000°02'1020.1
2018-Jun-15 02:30N 36°45' E 000°14'1120.3
2018-Jun-15 01:56N 36°48' E 000°27'1020.2
2018-Jun-15 01:26N 36°51' E 000°40'820.2
2018-Jun-15 01:00N 36°53' E 000°50'1020.2
2018-Jun-15 00:30N 36°56' E 001°02'1020.1
2018-Jun-15 00:00N 36°59' E 001°15'  

Dump ship's entire track history